Time;durP1;ratioP1;P1;durP2;ratioP2;P2;SDS_P1;SDS_P2;PMS_P1;PMS_P2;Temp;Humidity;BMP_temperature;BMP_pressure;BME280_temperature;BME280_humidity;BME280_pressure;Samples;Min_cycle;Max_cycle;Signal;HPM_P1;HPM_P2
2022/10/11 00:00:43;;;;;;;;;;;;;;;6.67;51.39;96143.56;5000526;28;20206;-70
2022/10/11 00:03:08;;;;;;;;;;;;;;;6.35;48.91;96146.31;5001138;28;20338;-70
2022/10/11 00:05:34;;;;;;;;;;;;;;;6.32;49.66;96151.03;5000388;28;19986;-69
2022/10/11 00:07:59;;;;;;;;;;;;;;;6.55;53.13;96146.34;4982636;28;19998;-69
2022/10/11 00:10:24;;;;;;;;;;;;;;;6.62;51.67;96146.59;5000686;28;20109;-70
2022/10/11 00:12:51;;;;;;;;;;;;;;;6.67;51.73;96143.56;5000340;28;20481;-70
2022/10/11 00:15:17;;;;;;;;;;;;;;;6.64;54.02;96147.31;4999546;28;19974;-71
2022/10/11 00:17:42;;;;;;;;;;;;;;;6.10;49.79;96145.03;4982014;28;19986;-70
2022/10/11 00:20:08;;;;;;;;;;;;;;;6.08;48.05;96144.31;5000006;28;19990;-70
2022/10/11 00:22:33;;;;;;;;;;;;;;;6.04;48.99;96143.75;5000534;28;19966;-70
2022/10/11 00:24:59;;;;;;;;;;;;;;;6.19;53.61;96141.53;4998752;28;20035;-70
2022/10/11 00:27:24;;;;;;;;;;;;;;;6.22;52.18;96141.28;5000401;28;20397;-70
2022/10/11 00:29:49;;;;;;;;;;;;;;;6.36;52.94;96147.97;4999753;28;19982;-70
2022/10/11 00:32:14;;;;;;;;;;;;;;;6.43;53.02;96155.34;5000053;28;19994;-70
2022/10/11 00:34:40;;;;;;;;;;;;;;;6.44;53.00;96149.94;5000418;28;20557;-70
2022/10/11 00:37:05;;;;;;;;;;;;;;;6.31;51.93;96149.34;5000058;28;20436;-70
2022/10/11 00:39:30;;;;;;;;;;;;;;;6.06;48.27;96159.50;5000338;28;19970;-70
2022/10/11 00:41:55;;;;;;;;;;;;;;;6.06;52.67;96156.84;5000087;28;20182;-70
2022/10/11 00:44:21;;;;;;;;;;;;;;;6.02;54.17;96161.53;5001503;28;19996;-71
2022/10/11 00:47:07;;;;;;;;;;;;;;;6.03;53.10;96165.03;4982748;28;19973;-70
2022/10/11 00:49:36;;;;;;;;;;;;;;;5.99;51.82;96162.66;4998763;28;20072;-70
2022/10/11 00:52:30;;;;;;;;;;;;;;;5.95;52.23;96171.03;4981330;28;20012;-70
2022/10/11 00:54:55;;;;;;;;;;;;;;;5.95;54.09;96166.53;4994761;28;20445;-70
2022/10/11 00:57:21;;;;;;;;;;;;;;;5.90;51.89;96171.41;4982383;28;20092;-70
2022/10/11 00:59:49;;;;;;;;;;;;;;;5.83;51.06;96171.13;4982355;28;20112;-70
2022/10/11 01:02:14;;;;;;;;;;;;;;;5.73;51.03;96176.38;4998852;28;20338;-70
2022/10/11 01:04:40;;;;;;;;;;;;;;;5.68;51.06;96181.19;5002010;28;19992;-70
2022/10/11 01:07:05;;;;;;;;;;;;;;;5.69;54.14;96185.53;4982220;28;20361;-70
2022/10/11 01:09:30;;;;;;;;;;;;;;;5.74;54.52;96171.91;4999893;28;20225;-70
2022/10/11 01:11:57;;;;;;;;;;;;;;;5.68;55.62;96178.56;4999088;28;19992;-70
2022/10/11 01:14:25;;;;;;;;;;;;;;;5.61;56.06;96177.41;5000675;28;19974;-70
2022/10/11 01:16:57;;;;;;;;;;;;;;;5.60;55.25;96178.38;4999277;28;20087;-70
2022/10/11 01:19:23;;;;;;;;;;;;;;;5.47;50.06;96174.16;4982638;28;19974;-70
2022/10/11 01:21:51;;;;;;;;;;;;;;;5.30;54.08;96175.63;4999727;28;20226;-70
2022/10/11 01:24:19;;;;;;;;;;;;;;;5.09;51.25;96178.28;4982963;28;19996;-70
2022/10/11 01:26:57;;;;;;;;;;;;;;;5.30;56.69;96180.91;4999995;28;19966;-70
2022/10/11 01:29:24;;;;;;;;;;;;;;;5.36;54.31;96184.81;4998088;28;20540;-70
2022/10/11 01:31:51;;;;;;;;;;;;;;;5.26;50.93;96178.63;4983693;28;20132;-70
2022/10/11 01:34:20;;;;;;;;;;;;;;;5.31;51.27;96187.03;4983320;28;19974;-70
2022/10/11 01:37:04;;;;;;;;;;;;;;;5.34;53.76;96184.13;4982489;28;20420;-70
2022/10/11 01:39:34;;;;;;;;;;;;;;;5.50;54.30;96198.66;4999851;28;20388;-71
2022/10/11 01:42:00;;;;;;;;;;;;;;;5.55;54.96;96196.44;4980961;28;20301;-70
2022/10/11 01:44:25;;;;;;;;;;;;;;;5.57;55.30;96194.50;4981289;28;20670;-70
2022/10/11 01:46:53;;;;;;;;;;;;;;;5.50;51.96;96193.38;4999526;28;20042;-70
2022/10/11 01:49:19;;;;;;;;;;;;;;;5.37;53.01;96189.13;4999032;28;19985;-70
2022/10/11 01:51:47;;;;;;;;;;;;;;;5.07;55.99;96188.13;4998680;28;20421;-70
2022/10/11 01:54:29;;;;;;;;;;;;;;;5.17;54.98;96194.28;4999454;28;19970;-70
2022/10/11 01:56:57;;;;;;;;;;;;;;;5.44;53.42;96202.66;4998412;28;20350;-70
2022/10/11 01:59:28;;;;;;;;;;;;;;;5.38;53.75;96195.25;4999448;28;20036;-70
2022/10/11 02:01:56;;;;;;;;;;;;;;;5.37;55.49;96204.97;4998069;28;19993;-70
2022/10/11 02:04:25;;;;;;;;;;;;;;;5.26;55.30;96202.41;4998556;28;20284;-70
2022/10/11 02:07:10;;;;;;;;;;;;;;;5.12;55.49;96206.22;4999331;28;20347;-70
2022/10/11 02:09:41;;;;;;;;;;;;;;;4.97;50.18;96196.78;4983485;28;20490;-70
2022/10/11 02:12:09;;;;;;;;;;;;;;;4.90;52.89;96203.53;4981423;28;20283;-69
2022/10/11 02:14:35;;;;;;;;;;;;;;;4.86;53.80;96209.22;4981774;28;19981;-70
2022/10/11 02:17:06;;;;;;;;;;;;;;;4.85;53.77;96205.72;4981587;28;19997;-70
2022/10/11 02:19:35;;;;;;;;;;;;;;;4.75;54.06;96199.53;4999780;28;19982;-70
2022/10/11 02:22:01;;;;;;;;;;;;;;;4.68;55.00;96202.69;4984728;28;19993;-70
2022/10/11 02:24:28;;;;;;;;;;;;;;;4.63;55.59;96210.13;4985113;28;20362;-70
2022/10/11 02:26:54;;;;;;;;;;;;;;;4.56;53.27;96206.34;4985251;28;19970;-70
2022/10/11 02:29:20;;;;;;;;;;;;;;;4.50;55.21;96212.09;4985545;28;20037;-70
2022/10/11 02:31:45;;;;;;;;;;;;;;;4.43;55.25;96215.22;4984899;28;19993;-70
2022/10/11 02:34:21;;;;;;;;;;;;;;;4.32;53.61;96216.09;5003209;28;19977;-70
2022/10/11 02:36:55;;;;;;;;;;;;;;;4.26;56.21;96221.88;4984196;28;20545;-70
2022/10/11 02:39:23;;;;;;;;;;;;;;;4.26;55.44;96221.03;5001460;28;19998;-69
2022/10/11 02:41:49;;;;;;;;;;;;;;;4.16;53.04;96226.19;5002580;28;20444;-72
2022/10/11 02:44:19;;;;;;;;;;;;;;;4.01;50.08;96218.56;4983813;28;19985;-72
2022/10/11 02:46:44;;;;;;;;;;;;;;;3.88;53.36;96220.50;4986690;28;19966;-72
2022/10/11 02:49:10;;;;;;;;;;;;;;;3.65;52.01;96218.72;4984772;28;20397;-72
2022/10/11 02:51:35;;;;;;;;;;;;;;;3.29;55.05;96226.66;4969530;28;19989;-72
2022/10/11 02:54:00;;;;;;;;;;;;;;;3.70;57.94;96223.59;5002407;28;19998;-71
2022/10/11 02:56:26;;;;;;;;;;;;;;;3.62;52.44;96226.84;5002515;28;19993;-73
2022/10/11 02:58:51;;;;;;;;;;;;;;;3.89;54.61;96228.28;5001772;28;19978;-72
2022/10/11 03:01:16;;;;;;;;;;;;;;;4.03;54.24;96231.59;5001161;28;20005;-72
2022/10/11 03:03:41;;;;;;;;;;;;;;;4.00;54.15;96234.47;5002540;28;19981;-72
2022/10/11 03:06:07;;;;;;;;;;;;;;;3.93;54.73;96242.88;5001348;28;20363;-70
2022/10/11 03:08:32;;;;;;;;;;;;;;;3.78;53.51;96246.72;5002384;28;20101;-70
2022/10/11 03:10:57;;;;;;;;;;;;;;;3.89;55.46;96244.09;4984995;28;20036;-70
2022/10/11 03:13:22;;;;;;;;;;;;;;;4.01;52.63;96249.34;5002238;28;20010;-70
2022/10/11 03:15:48;;;;;;;;;;;;;;;4.11;57.27;96249.47;5002154;28;19970;-70
2022/10/11 03:18:14;;;;;;;;;;;;;;;4.16;58.44;96248.13;4984573;28;19970;-70
2022/10/11 03:20:39;;;;;;;;;;;;;;;3.89;56.49;96244.09;5002237;28;20141;-70
2022/10/11 03:23:04;;;;;;;;;;;;;;;4.32;59.11;96253.00;5002120;28;19966;-70
2022/10/11 03:25:29;;;;;;;;;;;;;;;4.18;58.68;96248.84;5001721;28;19993;-70
2022/10/11 03:27:55;;;;;;;;;;;;;;;4.37;54.30;96241.25;5000869;28;19970;-70
2022/10/11 03:30:20;;;;;;;;;;;;;;;4.42;56.78;96247.00;5002252;28;20277;-70
2022/10/11 03:32:45;;;;;;;;;;;;;;;4.50;55.89;96247.22;5001425;28;20025;-70
2022/10/11 03:35:10;;;;;;;;;;;;;;;4.45;54.47;96246.75;4984411;28;19970;-70
2022/10/11 03:37:36;;;;;;;;;;;;;;;4.39;55.92;96253.34;5001179;28;20080;-71
2022/10/11 03:40:02;;;;;;;;;;;;;;;4.27;53.85;96252.53;4983991;28;19993;-71
2022/10/11 03:42:28;;;;;;;;;;;;;;;4.17;52.26;96257.72;5002311;28;20478;-70
2022/10/11 03:44:53;;;;;;;;;;;;;;;4.03;49.57;96256.16;5001533;28;19998;-71
2022/10/11 03:47:18;;;;;;;;;;;;;;;3.96;51.82;96248.84;5001563;28;20047;-71
2022/10/11 03:49:44;;;;;;;;;;;;;;;3.81;50.13;96254.34;5003374;28;20181;-70
2022/10/11 03:52:09;;;;;;;;;;;;;;;3.75;53.43;96260.97;5001077;28;21119;-71
2022/10/11 03:54:34;;;;;;;;;;;;;;;3.65;50.14;96258.22;5002444;28;20279;-71
2022/10/11 03:56:59;;;;;;;;;;;;;;;3.66;54.57;96253.75;5001063;28;20328;-70
2022/10/11 03:59:25;;;;;;;;;;;;;;;3.20;54.10;96258.09;5002464;28;19974;-70
2022/10/11 04:01:50;;;;;;;;;;;;;;;3.19;58.22;96264.31;5000934;28;19985;-71
2022/10/11 04:04:15;;;;;;;;;;;;;;;3.12;58.28;96261.28;5001231;28;19992;-71
2022/10/11 04:06:40;;;;;;;;;;;;;;;3.39;53.73;96261.00;5000708;28;20008;-70
2022/10/11 04:09:06;;;;;;;;;;;;;;;3.65;56.05;96265.25;4999683;28;20247;-71
2022/10/11 04:11:31;;;;;;;;;;;;;;;3.72;55.80;96270.88;5001141;28;20568;-71
2022/10/11 04:13:56;;;;;;;;;;;;;;;3.63;55.81;96273.28;5000477;28;20033;-71
2022/10/11 04:16:22;;;;;;;;;;;;;;;3.59;56.82;96271.00;5000585;28;20381;-71
2022/10/11 04:18:47;;;;;;;;;;;;;;;3.51;53.97;96280.31;5001187;28;19971;-71
2022/10/11 04:21:12;;;;;;;;;;;;;;;3.46;53.05;96281.63;5001279;28;19995;-71
2022/10/11 04:23:37;;;;;;;;;;;;;;;3.42;52.00;96281.00;5001078;28;19980;-71
2022/10/11 04:26:04;;;;;;;;;;;;;;;3.34;53.98;96284.22;5001382;28;19979;-71
2022/10/11 04:28:29;;;;;;;;;;;;;;;3.31;54.75;96284.44;4999854;28;20289;-71
2022/10/11 04:30:54;;;;;;;;;;;;;;;3.31;53.50;96287.06;5000631;28;19970;-71
2022/10/11 04:33:20;;;;;;;;;;;;;;;3.30;53.20;96288.84;5000795;28;19988;-71
2022/10/11 04:35:45;;;;;;;;;;;;;;;3.33;52.39;96286.97;5000590;28;20157;-71
2022/10/11 04:38:10;;;;;;;;;;;;;;;3.42;54.62;96284.47;5000709;28;19997;-71
2022/10/11 04:40:35;;;;;;;;;;;;;;;3.40;53.43;96291.63;5000405;28;20493;-71
2022/10/11 04:43:01;;;;;;;;;;;;;;;3.36;53.10;96284.06;5000515;28;19953;-71
2022/10/11 04:45:26;;;;;;;;;;;;;;;3.45;53.91;96290.47;5000240;28;19989;-71
2022/10/11 04:47:51;;;;;;;;;;;;;;;3.52;53.47;96291.69;5000334;28;20409;-71
2022/10/11 04:50:17;;;;;;;;;;;;;;;3.64;55.55;96288.13;5000703;28;19964;-71
2022/10/11 04:52:42;;;;;;;;;;;;;;;3.55;54.30;96294.09;4981187;28;20503;-71
2022/10/11 04:55:07;;;;;;;;;;;;;;;3.34;52.88;96297.38;5001348;28;20052;-71
2022/10/11 04:57:33;;;;;;;;;;;;;;;3.40;54.92;96298.69;5000429;28;19987;-71
2022/10/11 04:59:58;;;;;;;;;;;;;;;3.48;57.27;96296.38;4999427;28;19958;-71
2022/10/11 05:02:23;;;;;;;;;;;;;;;3.57;58.12;96293.97;5000040;28;19960;-71
2022/10/11 05:04:48;;;;;;;;;;;;;;;3.47;53.98;96297.28;5000027;28;20493;-71
2022/10/11 05:07:14;;;;;;;;;;;;;;;3.51;52.77;96290.03;4999627;28;20434;-71
2022/10/11 05:09:39;;;;;;;;;;;;;;;3.58;52.41;96280.69;4999946;28;19986;-71
2022/10/11 05:12:05;;;;;;;;;;;;;;;3.54;49.70;96285.34;5000498;28;20102;-71
2022/10/11 05:14:30;;;;;;;;;;;;;;;3.61;51.76;96288.34;4982723;28;19958;-71
2022/10/11 05:16:55;;;;;;;;;;;;;;;3.61;52.70;96296.25;4981797;28;20147;-71
2022/10/11 05:19:20;;;;;;;;;;;;;;;3.67;53.45;96300.22;4999891;28;19957;-71
2022/10/11 05:21:46;;;;;;;;;;;;;;;3.67;52.86;96302.84;5001987;28;20001;-71
2022/10/11 05:24:11;;;;;;;;;;;;;;;3.63;52.12;96306.66;5002312;28;20200;-71
2022/10/11 05:26:36;;;;;;;;;;;;;;;3.63;54.34;96306.66;5004617;28;19960;-71
2022/10/11 05:29:02;;;;;;;;;;;;;;;3.60;52.00;96304.28;5001905;28;20035;-71
2022/10/11 05:31:27;;;;;;;;;;;;;;;3.52;55.16;96302.22;4999681;28;20415;-71
2022/10/11 05:33:52;;;;;;;;;;;;;;;3.53;58.83;96309.16;4999925;28;19980;-71
2022/10/11 05:36:17;;;;;;;;;;;;;;;3.34;55.77;96307.06;4999727;28;20446;-71
2022/10/11 05:38:43;;;;;;;;;;;;;;;3.16;57.20;96310.09;5000724;28;20046;-71
2022/10/11 05:41:09;;;;;;;;;;;;;;;3.36;52.78;96303.34;4999230;28;19972;-71
2022/10/11 05:43:34;;;;;;;;;;;;;;;3.55;55.62;96320.44;5002109;28;20028;-71
2022/10/11 05:45:59;;;;;;;;;;;;;;;3.77;52.61;96321.41;5004690;28;20703;-71
2022/10/11 05:48:25;;;;;;;;;;;;;;;3.83;54.95;96320.94;5000345;28;20042;-70
2022/10/11 05:50:51;;;;;;;;;;;;;;;3.84;53.70;96319.16;5001160;28;20228;-71
2022/10/11 05:53:16;;;;;;;;;;;;;;;3.80;54.22;96321.19;5002943;28;20055;-71
2022/10/11 05:55:41;;;;;;;;;;;;;;;3.73;55.01;96326.09;5000981;28;19952;-71
2022/10/11 05:58:07;;;;;;;;;;;;;;;3.74;52.51;96334.84;5001800;28;19969;-71
2022/10/11 06:00:34;;;;;;;;;;;;;;;3.68;52.88;96341.41;4981459;28;20007;-71
2022/10/11 06:02:59;;;;;;;;;;;;;;;3.64;53.49;96332.06;4987768;28;19998;-71
2022/10/11 06:05:25;;;;;;;;;;;;;;;3.62;53.21;96340.06;4999632;28;19978;-71
2022/10/11 06:07:50;;;;;;;;;;;;;;;3.63;53.80;96347.00;5001279;28;19947;-71
2022/10/11 06:10:16;;;;;;;;;;;;;;;3.63;52.73;96346.16;5001019;28;20412;-71
2022/10/11 06:12:41;;;;;;;;;;;;;;;3.63;53.20;96352.28;4999348;28;20200;-71
2022/10/11 06:15:07;;;;;;;;;;;;;;;3.70;54.48;96359.72;4980148;28;19982;-71
2022/10/11 06:17:33;;;;;;;;;;;;;;;3.72;54.05;96365.72;4997422;28;19980;-71
2022/10/11 06:19:58;;;;;;;;;;;;;;;3.73;55.48;96362.09;4998360;28;20144;-71
2022/10/11 06:22:23;;;;;;;;;;;;;;;3.77;53.96;96364.41;4998068;28;19990;-71
2022/10/11 06:24:48;;;;;;;;;;;;;;;3.87;52.68;96368.97;4997664;28;19967;-71
2022/10/11 06:27:13;;;;;;;;;;;;;;;3.96;54.57;96367.41;4997636;28;20152;-71
2022/10/11 06:29:39;;;;;;;;;;;;;;;4.09;53.71;96375.22;4998291;28;20395;-71
2022/10/11 06:32:04;;;;;;;;;;;;;;;4.19;57.21;96368.31;4997673;28;20042;-71
2022/10/11 06:34:29;;;;;;;;;;;;;;;4.32;56.56;96376.09;4999353;28;20041;-71
2022/10/11 06:36:55;;;;;;;;;;;;;;;4.25;52.03;96372.25;4997145;28;20410;-71
2022/10/11 06:39:20;;;;;;;;;;;;;;;4.39;53.18;96385.19;4998224;28;19986;-71
2022/10/11 06:41:45;;;;;;;;;;;;;;;4.57;53.71;96382.06;4997312;28;20423;-71
2022/10/11 06:44:11;;;;;;;;;;;;;;;4.70;55.75;96385.41;4998652;28;19970;-70
2022/10/11 06:46:36;;;;;;;;;;;;;;;4.84;55.11;96388.75;4998527;28;19956;-71
2022/10/11 06:49:01;;;;;;;;;;;;;;;4.96;55.17;96398.31;4995878;28;20468;-71
2022/10/11 06:51:28;;;;;;;;;;;;;;;5.09;55.76;96400.84;4997553;28;20270;-71
2022/10/11 06:53:55;;;;;;;;;;;;;;;5.29;54.57;96414.22;4997775;28;20271;-71
2022/10/11 06:56:20;;;;;;;;;;;;;;;5.44;52.48;96412.13;4996383;28;20127;-71
2022/10/11 06:58:46;;;;;;;;;;;;;;;5.64;55.16;96420.19;4999523;28;20165;-72
2022/10/11 07:01:12;;;;;;;;;;;;;;;5.76;50.73;96414.88;4997144;28;20774;-71
2022/10/11 07:03:37;;;;;;;;;;;;;;;5.95;52.02;96420.28;4976478;28;20079;-72
2022/10/11 07:06:09;;;;;;;;;;;;;;;6.10;50.59;96423.47;4996007;28;20445;-71
2022/10/11 07:08:34;;;;;;;;;;;;;;;6.46;52.81;96428.38;4999918;28;19976;-71
2022/10/11 07:11:04;;;;;;;;;;;;;;;6.72;54.17;96427.97;5001337;28;19958;-72
2022/10/11 07:13:29;;;;;;;;;;;;;;;7.01;54.48;96427.19;4998926;28;20783;-72
2022/10/11 07:15:54;;;;;;;;;;;;;;;7.14;54.90;96426.97;5001007;28;19949;-72
2022/10/11 07:18:20;;;;;;;;;;;;;;;7.01;54.78;96432.50;5001866;28;19986;-72
2022/10/11 07:20:45;;;;;;;;;;;;;;;7.34;54.53;96427.00;4985362;28;19963;-72
2022/10/11 07:23:11;;;;;;;;;;;;;;;7.59;53.66;96430.09;5000898;28;20117;-72
2022/10/11 07:25:36;;;;;;;;;;;;;;;7.79;52.73;96433.59;5001575;28;19961;-72
2022/10/11 07:28:01;;;;;;;;;;;;;;;8.05;53.21;96440.97;4983600;28;19965;-72
2022/10/11 07:30:27;;;;;;;;;;;;;;;8.14;52.06;96441.94;5000028;28;19952;-72
2022/10/11 07:32:52;;;;;;;;;;;;;;;8.34;51.05;96443.72;5000589;28;19960;-72
2022/10/11 07:35:17;;;;;;;;;;;;;;;8.38;51.27;96440.63;4997329;28;19932;-72
2022/10/11 07:37:42;;;;;;;;;;;;;;;8.41;48.62;96440.34;4998876;28;19960;-72
2022/10/11 07:40:10;;;;;;;;;;;;;;;8.37;49.64;96448.75;4998678;28;19971;-72
2022/10/11 07:42:35;;;;;;;;;;;;;;;8.30;48.21;96444.00;5000511;28;20404;-72
2022/10/11 07:45:00;;;;;;;;;;;;;;;8.36;50.04;96439.94;5000143;28;19957;-72
2022/10/11 07:47:25;;;;;;;;;;;;;;;8.27;49.31;96441.63;5000168;28;20613;-72
2022/10/11 07:49:51;;;;;;;;;;;;;;;8.39;50.30;96434.34;4997572;28;20036;-72
2022/10/11 07:52:16;;;;;;;;;;;;;;;8.38;49.28;96445.94;4999711;28;19925;-72
2022/10/11 07:54:41;;;;;;;;;;;;;;;8.54;49.30;96444.50;4999458;28;20440;-72
2022/10/11 07:57:06;;;;;;;;;;;;;;;8.70;49.54;96441.22;5000411;28;20188;-72
2022/10/11 07:59:32;;;;;;;;;;;;;;;8.98;48.47;96446.59;4996498;28;20008;-72
2022/10/11 08:01:57;;;;;;;;;;;;;;;9.20;48.70;96444.50;5001265;28;19921;-72
2022/10/11 08:04:22;;;;;;;;;;;;;;;9.27;48.02;96440.28;4999542;28;19997;-72
2022/10/11 08:06:48;;;;;;;;;;;;;;;9.42;47.25;96443.25;5000452;28;19936;-69
2022/10/11 08:09:13;;;;;;;;;;;;;;;9.49;46.63;96451.47;4996703;28;20524;-70
2022/10/11 08:11:38;;;;;;;;;;;;;;;9.62;45.66;96455.56;4999989;28;19984;-70
2022/10/11 08:14:07;;;;;;;;;;;;;;;9.42;46.06;96453.06;4999474;28;20603;-70
2022/10/11 08:16:33;;;;;;;;;;;;;;;9.79;46.16;96444.09;4999483;28;20587;-70
2022/10/11 08:18:59;;;;;;;;;;;;;;;9.78;45.25;96453.06;5000509;28;19969;-70
2022/10/11 08:21:25;;;;;;;;;;;;;;;9.82;44.82;96457.09;5000157;28;19990;-70
2022/10/11 08:23:50;;;;;;;;;;;;;;;9.99;43.25;96449.25;4998808;28;20016;-71
2022/10/11 08:26:16;;;;;;;;;;;;;;;10.16;43.94;96447.56;4998672;28;20369;-71
2022/10/11 08:28:41;;;;;;;;;;;;;;;10.07;44.24;96449.34;4998509;28;20051;-71
2022/10/11 08:31:06;;;;;;;;;;;;;;;10.33;43.68;96443.22;4999480;28;19976;-71
2022/10/11 08:33:31;;;;;;;;;;;;;;;10.43;43.04;96450.25;5000646;28;20095;-71
2022/10/11 08:35:57;;;;;;;;;;;;;;;10.33;42.98;96455.66;4999067;28;19986;-70
2022/10/11 08:38:22;;;;;;;;;;;;;;;10.49;42.31;96449.63;4996868;28;19978;-71
2022/10/11 08:40:52;;;;;;;;;;;;;;;10.55;42.32;96454.34;4999277;28;20060;-70
2022/10/11 08:43:23;;;;;;;;;;;;;;;10.41;41.34;96453.09;4996829;28;19969;-71
2022/10/11 08:45:49;;;;;;;;;;;;;;;10.96;41.77;96455.53;4984482;28;20413;-70
2022/10/11 08:48:18;;;;;;;;;;;;;;;11.10;40.74;96460.28;5000271;28;20266;-71
2022/10/11 08:50:45;;;;;;;;;;;;;;;11.23;41.29;96470.50;4980156;28;20664;-70
2022/10/11 08:53:46;;;;;;;;;;;;;;;11.49;39.75;96466.91;4995712;28;19998;-71
2022/10/11 08:56:11;;;;;;;;;;;;;;;11.88;39.45;96459.31;4897879;29;19998;-71
2022/10/11 08:58:38;;;;;;;;;;;;;;;11.80;39.04;96467.28;4961191;28;19970;-71
2022/10/11 09:01:03;;;;;;;;;;;;;;;12.08;37.84;96459.00;4999081;28;20005;-71
2022/10/11 09:03:29;;;;;;;;;;;;;;;12.12;37.26;96455.84;4998988;28;19965;-71
2022/10/11 09:06:12;;;;;;;;;;;;;;;12.36;37.06;96458.66;4999609;28;20083;-71
2022/10/11 09:08:53;;;;;;;;;;;;;;;12.37;37.55;96465.66;4997246;28;20001;-71
2022/10/11 09:11:33;;;;;;;;;;;;;;;12.41;37.83;96467.81;4999271;28;20001;-71
2022/10/11 09:14:17;;;;;;;;;;;;;;;12.31;37.00;96469.84;4995473;28;19997;-71
2022/10/11 09:16:46;;;;;;;;;;;;;;;12.67;36.87;96472.13;4999738;28;20389;-71
2022/10/11 09:19:11;;;;;;;;;;;;;;;12.76;35.39;96466.75;4998516;28;19966;-71
2022/10/11 09:21:48;;;;;;;;;;;;;;;12.91;34.63;96467.72;4997981;28;19996;-71
2022/10/11 09:24:16;;;;;;;;;;;;;;;12.51;34.81;96466.81;4998361;28;19990;-71
2022/10/11 09:26:47;;;;;;;;;;;;;;;12.92;36.53;96461.34;4997192;28;20310;-71
2022/10/11 09:29:19;;;;;;;;;;;;;;;12.62;31.74;96470.97;4999233;28;19993;-70
2022/10/11 09:31:45;;;;;;;;;;;;;;;12.58;31.76;96462.44;4999285;28;19993;-70
2022/10/11 09:34:11;;;;;;;;;;;;;;;12.69;32.26;96463.09;4980675;28;20442;-70
2022/10/11 09:36:39;;;;;;;;;;;;;;;12.90;33.76;96465.22;4999551;28;20698;-70
2022/10/11 09:39:19;;;;;;;;;;;;;;;13.06;33.10;96469.72;4997939;28;20145;-70
2022/10/11 09:41:50;;;;;;;;;;;;;;;12.90;32.50;96465.22;4996753;28;19997;-71
2022/10/11 09:44:20;;;;;;;;;;;;;;;13.12;32.35;96454.81;4980904;28;20064;-70
2022/10/11 09:46:46;;;;;;;;;;;;;;;13.17;31.75;96463.97;4981585;28;19973;-70
2022/10/11 09:49:12;;;;;;;;;;;;;;;13.21;35.11;96452.91;4981549;28;20056;-70
2022/10/11 09:51:38;;;;;;;;;;;;;;;13.42;32.95;96455.81;4996692;28;19990;-70
2022/10/11 09:54:04;;;;;;;;;;;;;;;13.70;33.65;96451.81;4982660;28;20000;-70
2022/10/11 09:56:29;;;;;;;;;;;;;;;14.11;29.87;96449.88;4998383;28;20502;-70
2022/10/11 09:59:08;;;;;;;;;;;;;;;14.06;31.74;96455.75;4996222;28;20083;-71
2022/10/11 10:01:33;;;;;;;;;;;;;;;14.07;30.93;96455.59;4997552;28;20071;-77
2022/10/11 10:04:06;;;;;;;;;;;;;;;13.54;31.77;96463.47;4981439;28;20060;-77
2022/10/11 10:06:31;;;;;;;;;;;;;;;13.61;30.97;96459.06;4981058;28;19962;-65
2022/10/11 10:09:15;;;;;;;;;;;;;;;12.96;33.12;96455.66;4978745;28;20016;-65
2022/10/11 10:11:40;;;;;;;;;;;;;;;12.67;33.38;96452.59;4990328;28;20123;-65
2022/10/11 10:14:09;;;;;;;;;;;;;;;12.44;34.06;96460.50;5000394;28;19998;-65
2022/10/11 10:16:35;;;;;;;;;;;;;;;12.93;35.15;96457.66;4979337;28;20026;-65
2022/10/11 10:19:01;;;;;;;;;;;;;;;13.15;34.71;96463.31;4980648;28;19966;-65
2022/10/11 10:21:30;;;;;;;;;;;;;;;13.49;33.99;96460.50;5000364;28;19990;-65
2022/10/11 10:23:55;;;;;;;;;;;;;;;13.95;32.79;96455.16;4999022;28;20442;-65
2022/10/11 10:26:22;;;;;;;;;;;;;;;14.07;32.03;96447.56;5000302;28;20035;-65
2022/10/11 10:28:54;;;;;;;;;;;;;;;14.33;30.80;96457.06;4998162;28;19994;-65
2022/10/11 10:31:20;;;;;;;;;;;;;;;14.30;32.49;96451.22;4998258;28;19997;-66
2022/10/11 10:33:46;;;;;;;;;;;;;;;14.65;31.09;96448.84;5000579;28;20000;-65
2022/10/11 10:36:15;;;;;;;;;;;;;;;14.77;28.75;96446.59;4982363;28;19994;-65
2022/10/11 10:38:59;;;;;;;;;;;;;;;14.65;31.45;96448.84;4999046;28;20024;-65
2022/10/11 10:41:24;;;;;;;;;;;;;;;14.69;30.62;96449.34;5000220;28;20501;-66
2022/10/11 10:43:56;;;;;;;;;;;;;;;15.17;30.10;96451.66;5002165;28;20017;-66
2022/10/11 10:46:24;;;;;;;;;;;;;;;15.27;30.87;96445.16;4984738;28;19964;-66
2022/10/11 10:48:52;;;;;;;;;;;;;;;12.86;29.84;96454.03;5003502;28;19991;-66
2022/10/11 10:51:41;;;;;;;;;;;;;;;13.55;30.15;96451.75;5001347;28;20532;-65
2022/10/11 10:54:28;;;;;;;;;;;;;;;14.55;31.84;96440.28;4982991;28;20390;-65
2022/10/11 10:57:00;;;;;;;;;;;;;;;15.03;29.27;96449.81;5000967;28;20002;-65
2022/10/11 10:59:29;;;;;;;;;;;;;;;15.60;29.69;96444.72;4985273;28;20094;-65
2022/10/11 11:01:59;;;;;;;;;;;;;;;15.71;29.31;96444.22;5002039;28;19998;-65
2022/10/11 11:04:33;;;;;;;;;;;;;;;15.77;29.68;96455.25;4982564;28;19994;-66
2022/10/11 11:07:03;;;;;;;;;;;;;;;15.99;29.65;96440.81;4985762;28;19964;-66
2022/10/11 11:09:35;;;;;;;;;;;;;;;15.31;27.29;96439.25;4981429;28;19990;-66
2022/10/11 11:12:19;;;;;;;;;;;;;;;15.38;29.03;96431.25;5000819;28;20046;-67
2022/10/11 11:14:54;;;;;;;;;;;;;;;15.70;29.16;96434.53;5001826;28;20065;-67
2022/10/11 11:17:38;;;;;;;;;;;;;;;15.92;27.41;96421.13;4982900;28;20389;-66
2022/10/11 11:20:21;;;;;;;;;;;;;;;15.62;29.27;96434.66;4999468;28;19966;-66
2022/10/11 11:22:50;;;;;;;;;;;;;;;15.94;28.66;96427.09;4999396;28;19970;-66
2022/10/11 11:25:18;;;;;;;;;;;;;;;16.03;27.12;96429.66;4998973;28;19991;-66
2022/10/11 11:27:49;;;;;;;;;;;;;;;15.59;26.43;96429.66;5001780;28;19984;-66
2022/10/11 11:30:17;;;;;;;;;;;;;;;15.45;26.74;96425.97;4999877;28;20055;-66
2022/10/11 11:32:57;;;;;;;;;;;;;;;15.04;28.86;96427.34;5000556;28;19997;-66
2022/10/11 11:36:01;;;;;;;;;;;;;;;15.85;27.39;96422.91;4997855;28;19974;-66
2022/10/11 11:38:41;;;;;;;;;;;;;;;16.33;25.91;96416.91;4900476;29;19999;-65
2022/10/11 11:41:14;;;;;;;;;;;;;;;16.33;27.57;96410.69;4899406;29;19993;-65
2022/10/11 11:43:59;;;;;;;;;;;;;;;16.48;26.30;96416.81;4946777;28;19975;-65
2022/10/11 11:46:29;;;;;;;;;;;;;;;16.69;27.68;96412.38;4998122;28;20279;-65
2022/10/11 11:48:55;;;;;;;;;;;;;;;17.02;27.46;96403.69;4964726;28;20005;-65
2022/10/11 11:51:20;;;;;;;;;;;;;;;17.24;26.57;96403.56;4983740;28;19980;-65
2022/10/11 11:54:01;;;;;;;;;;;;;;;17.56;27.06;96407.59;4981848;28;20173;-65
2022/10/11 11:56:29;;;;;;;;;;;;;;;16.55;25.23;96405.28;4999840;28;20001;-65
2022/10/11 11:59:07;;;;;;;;;;;;;;;17.04;26.85;96406.16;4982657;28;20391;-65
2022/10/11 12:01:36;;;;;;;;;;;;;;;17.33;25.52;96398.84;5000752;28;19986;-65
2022/10/11 12:04:06;;;;;;;;;;;;;;;18.02;24.40;96404.16;4982593;28;19981;-65
2022/10/11 12:06:32;;;;;;;;;;;;;;;18.42;23.03;96397.09;5000297;28;19964;-66
2022/10/11 12:09:21;;;;;;;;;;;;;;;18.57;23.85;96399.56;4999466;28;20427;-65
2022/10/11 12:11:49;;;;;;;;;;;;;;;18.77;24.31;96399.53;4989407;28;20458;-65
2022/10/11 12:14:33;;;;;;;;;;;;;;;18.97;25.09;96395.13;5002080;28;19994;-65
2022/10/11 12:17:09;;;;;;;;;;;;;;;18.88;23.12;96394.53;4998314;28;19998;-65
2022/10/11 12:19:34;;;;;;;;;;;;;;;19.43;23.95;96401.38;4982050;28;20427;-66
2022/10/11 12:22:36;;;;;;;;;;;;;;;20.05;24.16;96395.41;4982837;28;19985;-66
2022/10/11 12:25:21;;;;;;;;;;;;;;;21.43;20.90;96392.75;4920123;29;20020;-66
2022/10/11 12:27:47;;;;;;;;;;;;;;;23.17;19.75;96397.41;4994268;28;20056;-65
2022/10/11 12:30:31;;;;;;;;;;;;;;;25.19;17.08;96386.22;5000232;28;20098;-66
2022/10/11 12:33:12;;;;;;;;;;;;;;;26.19;15.07;96393.50;4998685;28;20045;-66
2022/10/11 12:35:38;;;;;;;;;;;;;;;25.85;15.49;96391.84;4999485;28;20288;-66
2022/10/11 12:38:17;;;;;;;;;;;;;;;28.61;14.54;96388.28;5000041;28;20362;-66
2022/10/11 12:40:44;;;;;;;;;;;;;;;30.07;13.49;96382.13;4982653;28;19969;-66
2022/10/11 12:43:13;;;;;;;;;;;;;;;32.19;12.07;96383.44;4978919;28;19953;-66
2022/10/11 12:45:38;;;;;;;;;;;;;;;33.79;11.03;96375.09;5000328;28;19991;-66
2022/10/11 12:48:18;;;;;;;;;;;;;;;34.70;10.28;96371.44;5000359;28;19925;-66
2022/10/11 12:50:44;;;;;;;;;;;;;;;36.39;7.96;96367.72;4999846;28;19933;-66
2022/10/11 12:53:31;;;;;;;;;;;;;;;37.23;7.71;96368.38;4998810;28;19983;-66
2022/10/11 12:56:15;;;;;;;;;;;;;;;38.33;6.73;96364.91;4981539;28;19917;-67
2022/10/11 12:58:42;;;;;;;;;;;;;;;38.40;7.53;96358.75;4999942;28;19921;-67